createdAt,value
2023-01-07T00:00:25.187Z,30.58
2023-01-07T00:03:39.268Z,29.92
2023-01-07T00:06:13.899Z,27.25
2023-01-07T00:08:50.982Z,29.15
2023-01-07T00:11:31.927Z,29.13
2023-01-07T00:14:08.804Z,27.88
2023-01-07T00:16:41.292Z,22.85
2023-01-07T00:22:04.064Z,26.35
2023-01-07T00:24:32.371Z,29.55
2023-01-07T00:27:01.002Z,23.80
2023-01-07T00:29:32.589Z,24.63
2023-01-07T00:32:09.224Z,26.83
2023-01-07T00:34:39.144Z,25.30
2023-01-07T00:37:26.424Z,32.10
2023-01-07T00:40:21.230Z,24.75
2023-01-07T00:43:07.033Z,26.17
2023-01-07T00:45:37.513Z,26.77
2023-01-07T00:48:06.914Z,23.20
2023-01-07T00:50:37.094Z,29.02
2023-01-07T00:53:06.652Z,24.35
2023-01-07T00:55:35.242Z,22.42
2023-01-07T00:58:04.831Z,22.67
2023-01-07T01:00:34.149Z,24.30
2023-01-07T01:03:03.364Z,24.10
2023-01-07T01:06:04.711Z,26.67
2023-01-07T01:08:58.741Z,27.38
2023-01-07T01:11:27.826Z,25.85
2023-01-07T01:13:58.829Z,27.35
2023-01-07T01:16:36.413Z,32.08
2023-01-07T01:19:04.906Z,30.40
2023-01-07T01:21:33.807Z,29.40
2023-01-07T01:24:02.412Z,26.10
2023-01-07T01:26:31.984Z,26.55
2023-01-07T01:29:00.314Z,30.60
2023-01-07T01:31:29.526Z,31.48
2023-01-07T01:34:00.051Z,33.03
2023-01-07T01:36:28.933Z,29.42
2023-01-07T01:39:00.161Z,31.90
2023-01-07T01:41:33.935Z,28.25
2023-01-07T01:44:46.358Z,32.92
2023-01-07T01:47:47.693Z,31.63
2023-01-07T01:50:32.980Z,32.88
2023-01-07T01:53:10.055Z,32.88
2023-01-07T01:55:46.789Z,37.72
2023-01-07T01:58:20.513Z,31.83
2023-01-07T02:00:51.443Z,32.58
2023-01-07T02:03:24.810Z,31.33
2023-01-07T02:05:53.407Z,38.25
2023-01-07T02:08:23.468Z,38.65
2023-01-07T02:11:09.323Z,44.92
2023-01-07T02:13:48.461Z,37.67
2023-01-07T02:16:42.916Z,34.22
2023-01-07T02:19:34.754Z,39.15
2023-01-07T02:22:17.695Z,43.55
2023-01-07T02:25:11.602Z,42.65
2023-01-07T02:27:52.308Z,55.17
2023-01-07T02:30:39.235Z,76.85
2023-01-07T02:33:38.177Z,86.63
2023-01-07T02:36:12.221Z,60.75
2023-01-07T02:38:59.810Z,53.03
2023-01-07T02:41:58.438Z,70.50
2023-01-07T02:44:56.437Z,64.25
2023-01-07T02:47:28.688Z,59.88
2023-01-07T02:50:00.122Z,58.40
2023-01-07T02:52:32.834Z,84.22
2023-01-07T02:55:17.164Z,71.05
2023-01-07T02:57:57.856Z,44.40
2023-01-07T03:00:45.578Z,50.45
2023-01-07T03:03:44.961Z,64.45
2023-01-07T03:06:20.654Z,52.42
2023-01-07T03:08:58.827Z,51.13
2023-01-07T03:11:35.230Z,45.53
2023-01-07T03:14:17.319Z,49.85
2023-01-07T03:16:55.397Z,47.85
2023-01-07T03:19:34.379Z,44.92
2023-01-07T03:22:06.810Z,44.58
2023-01-07T03:24:36.405Z,40.60
2023-01-07T03:27:09.559Z,34.22
2023-01-07T03:29:38.363Z,46.92
2023-01-07T03:32:16.100Z,42.05
2023-01-07T03:34:45.598Z,48.53
2023-01-07T03:37:20.291Z,48.95
2023-01-07T03:39:50.200Z,52.20
2023-01-07T03:42:42.888Z,43.33
2023-01-07T03:45:25.679Z,43.67
2023-01-07T03:47:58.122Z,44.38
2023-01-07T03:50:31.780Z,30.50
2023-01-07T03:53:00.109Z,50.63
2023-01-07T03:55:30.455Z,130.90
2023-01-07T03:58:00.162Z,516.90
2023-01-07T04:00:29.021Z,196.55
2023-01-07T04:03:05.273Z,44.60
2023-01-07T04:05:38.714Z,176.57
2023-01-07T04:08:07.176Z,151.55
2023-01-07T04:13:07.399Z,73.65
2023-01-07T04:15:36.977Z,144.52
2023-01-07T04:18:05.410Z,46.65
2023-01-07T04:20:34.533Z,42.90
2023-01-07T04:23:02.947Z,47.88
2023-01-07T04:25:33.741Z,44.42
2023-01-07T04:28:05.367Z,49.63
2023-01-07T04:30:34.261Z,37.85
2023-01-07T04:33:02.783Z,55.42
2023-01-07T04:35:33.193Z,45.05
2023-01-07T04:38:01.688Z,45.00
2023-01-07T04:40:30.958Z,46.10
2023-01-07T04:43:01.287Z,57.67
2023-01-07T04:45:30.762Z,58.97
2023-01-07T04:48:01.421Z,64.28
2023-01-07T04:50:31.500Z,61.25
2023-01-07T04:53:00.061Z,57.10
2023-01-07T04:55:30.083Z,54.35
2023-01-07T04:57:58.820Z,65.53
2023-01-07T05:00:27.508Z,69.97
2023-01-07T05:02:56.900Z,89.85
2023-01-07T05:05:26.012Z,91.45
2023-01-07T05:07:54.789Z,77.85
2023-01-07T05:10:25.205Z,93.47
2023-01-07T05:12:54.382Z,92.47
2023-01-07T05:15:25.206Z,98.47
2023-01-07T05:17:56.155Z,115.88
2023-01-07T05:20:26.826Z,79.70
2023-01-07T05:22:55.344Z,96.03
2023-01-07T05:25:23.979Z,95.45
2023-01-07T05:27:52.481Z,102.70
2023-01-07T05:30:21.226Z,75.32
2023-01-07T05:32:49.864Z,83.07
2023-01-07T05:35:19.766Z,106.97
2023-01-07T05:37:48.759Z,111.95
2023-01-07T05:40:17.847Z,93.30
2023-01-07T05:42:46.339Z,84.70
2023-01-07T05:45:15.015Z,80.15
2023-01-07T05:47:43.682Z,72.03
2023-01-07T05:50:12.400Z,103.95
2023-01-07T05:52:40.941Z,122.53
2023-01-07T05:55:10.157Z,91.43
2023-01-07T05:57:38.514Z,118.72
2023-01-07T06:00:08.210Z,31.73
2023-01-07T06:02:40.490Z,81.07
2023-01-07T06:05:09.725Z,73.03
2023-01-07T06:07:38.084Z,62.78
2023-01-07T06:10:08.206Z,68.53
2023-01-07T06:12:36.604Z,55.38
2023-01-07T06:15:09.979Z,61.05
2023-01-07T06:17:51.603Z,78.07
2023-01-07T06:20:25.001Z,71.45
2023-01-07T06:22:54.567Z,45.80
2023-01-07T06:25:23.395Z,64.45
2023-01-07T06:27:51.726Z,65.22
2023-01-07T06:30:20.372Z,85.40
2023-01-07T06:32:49.019Z,71.32
2023-01-07T06:35:19.963Z,63.63
2023-01-07T06:38:02.423Z,61.70
2023-01-07T06:40:41.503Z,64.68
2023-01-07T06:43:14.906Z,64.57
2023-01-07T06:45:44.649Z,60.88
2023-01-07T06:48:14.656Z,67.22
2023-01-07T06:50:45.020Z,57.38
2023-01-07T06:53:13.595Z,71.35
2023-01-07T06:56:32.836Z,52.38
2023-01-07T06:59:03.927Z,61.95
2023-01-07T07:01:36.027Z,52.53
2023-01-07T07:04:07.261Z,50.47
2023-01-07T07:06:36.089Z,47.93
2023-01-07T07:09:10.609Z,58.15
2023-01-07T07:11:41.736Z,60.08
2023-01-07T07:14:10.160Z,44.60
2023-01-07T07:16:45.639Z,38.25
2023-01-07T07:19:27.741Z,39.67
2023-01-07T07:22:04.689Z,50.55
2023-01-07T07:24:39.120Z,51.83
2023-01-07T07:27:11.008Z,41.78
2023-01-07T07:34:39.292Z,52.28
2023-01-07T07:37:15.895Z,58.67
2023-01-07T07:39:52.530Z,38.00
2023-01-07T07:42:28.215Z,37.42
2023-01-07T07:45:04.958Z,37.92
2023-01-07T07:52:04.006Z,32.30
2023-01-07T07:57:42.714Z,38.05
2023-01-07T08:00:39.028Z,39.83
2023-01-07T08:03:53.678Z,36.22
2023-01-07T08:06:31.919Z,39.55
2023-01-07T08:09:34.521Z,32.47
2023-01-07T08:12:06.028Z,31.50
2023-01-07T08:14:54.409Z,37.75
2023-01-07T08:20:43.143Z,38.42
2023-01-07T08:23:21.999Z,37.78
2023-01-07T08:25:53.352Z,35.42
2023-01-07T08:28:24.230Z,34.50
2023-01-07T08:31:42.458Z,31.48
2023-01-07T08:34:16.898Z,32.95
2023-01-07T08:36:57.257Z,36.90
2023-01-07T08:39:39.963Z,29.63
2023-01-07T08:42:14.550Z,25.17
2023-01-07T08:47:50.987Z,25.15
2023-01-07T08:50:21.262Z,22.80
2023-01-07T08:52:55.734Z,29.60
2023-01-07T08:56:03.769Z,23.90
2023-01-07T08:58:43.805Z,23.58
2023-01-07T09:01:24.031Z,29.15
2023-01-07T09:04:21.389Z,28.10
2023-01-07T09:10:15.587Z,29.30
2023-01-07T09:12:43.910Z,24.75
2023-01-07T09:15:17.535Z,28.00
2023-01-07T09:17:49.495Z,26.98
2023-01-07T09:20:21.031Z,31.42
2023-01-07T09:22:58.589Z,31.20
2023-01-07T09:25:27.840Z,30.45
2023-01-07T09:27:56.181Z,29.88
2023-01-07T09:30:24.850Z,30.90
2023-01-07T09:32:53.181Z,28.20
2023-01-07T09:35:21.900Z,27.40
2023-01-07T09:37:50.251Z,27.58
2023-01-07T09:40:32.577Z,28.40
2023-01-07T09:44:00.153Z,32.72
2023-01-07T09:46:31.011Z,30.55
2023-01-07T09:49:03.872Z,32.67
2023-01-07T09:52:14.251Z,29.30
2023-01-07T09:54:48.741Z,27.15
2023-01-07T09:57:18.238Z,23.50
2023-01-07T09:59:47.326Z,25.00
2023-01-07T10:10:57.998Z,22.15
2023-01-07T10:22:11.488Z,23.27
2023-01-07T10:24:56.807Z,24.50
2023-01-07T10:27:50.390Z,25.02
2023-01-07T10:30:47.533Z,25.80
2023-01-07T10:33:50.721Z,33.08
2023-01-07T10:44:04.341Z,28.38
2023-01-07T10:52:09.105Z,28.98
2023-01-07T10:54:55.835Z,33.63
2023-01-07T10:57:29.290Z,34.22
2023-01-07T11:00:05.041Z,36.00
2023-01-07T11:03:16.970Z,36.13
2023-01-07T11:05:47.196Z,39.45
2023-01-07T11:08:38.434Z,38.17
2023-01-07T11:11:17.410Z,37.80
2023-01-07T11:13:58.898Z,38.70
2023-01-07T11:16:39.845Z,33.53
2023-01-07T11:19:14.683Z,33.80
2023-01-07T11:21:47.717Z,36.90
2023-01-07T11:24:35.929Z,34.05
2023-01-07T11:27:17.479Z,35.75
2023-01-07T11:30:25.533Z,39.60
2023-01-07T11:33:10.776Z,49.13
2023-01-07T11:35:55.135Z,47.90
2023-01-07T11:38:37.978Z,42.72
2023-01-07T11:41:21.095Z,41.75
2023-01-07T11:43:54.102Z,46.45
2023-01-07T11:46:26.888Z,48.35
2023-01-07T11:49:01.097Z,50.90
2023-01-07T11:51:40.883Z,44.08
2023-01-07T11:54:23.614Z,30.50
2023-01-07T11:56:54.173Z,26.20
2023-01-07T11:59:28.417Z,31.48
2023-01-07T12:02:01.692Z,35.03
2023-01-07T12:04:42.225Z,47.97
2023-01-07T12:07:17.973Z,32.13
2023-01-07T12:14:54.286Z,33.40
2023-01-07T12:17:47.738Z,29.08
2023-01-07T12:20:41.926Z,24.27
2023-01-07T12:23:33.936Z,35.38
2023-01-07T12:26:28.670Z,36.35
2023-01-07T12:32:41.705Z,33.95
2023-01-07T12:35:37.046Z,47.03
2023-01-07T12:38:41.399Z,52.35
2023-01-07T12:41:22.378Z,53.47
2023-01-07T12:44:06.063Z,52.85
2023-01-07T12:47:29.887Z,65.35
2023-01-07T12:50:16.539Z,66.63
2023-01-07T12:53:02.683Z,80.88
2023-01-07T12:55:43.387Z,83.43
2023-01-07T12:58:24.352Z,83.32
2023-01-07T13:01:02.599Z,92.50
2023-01-07T13:04:15.607Z,81.80
2023-01-07T13:06:55.514Z,83.13
2023-01-07T13:10:01.463Z,105.78
2023-01-07T13:12:45.835Z,81.38
2023-01-07T13:15:30.176Z,92.47
2023-01-07T13:18:08.119Z,94.22
2023-01-07T13:20:58.291Z,122.18
2023-01-07T13:23:41.656Z,83.93
2023-01-07T13:26:18.109Z,77.85
2023-01-07T13:28:58.955Z,79.00
2023-01-07T13:31:42.939Z,85.20
2023-01-07T13:34:34.290Z,84.90
2023-01-07T13:37:21.093Z,91.35
2023-01-07T13:39:59.037Z,87.68
2023-01-07T13:42:55.144Z,94.47
2023-01-07T13:45:30.915Z,103.35
2023-01-07T13:48:03.285Z,124.57
2023-01-07T13:50:55.611Z,126.90
2023-01-07T13:53:27.038Z,126.07
2023-01-07T13:56:18.553Z,131.45
2023-01-07T13:58:50.283Z,102.70
2023-01-07T14:01:23.347Z,98.90
2023-01-07T14:03:58.167Z,100.27
2023-01-07T14:06:27.119Z,98.90
2023-01-07T14:08:59.534Z,115.43
2023-01-07T14:11:31.118Z,108.60
2023-01-07T14:14:07.064Z,106.53
2023-01-07T14:17:06.561Z,122.78
2023-01-07T14:19:54.359Z,120.85
2023-01-07T14:22:38.116Z,123.50
2023-01-07T14:25:21.335Z,127.82
2023-01-07T14:28:23.271Z,126.55
2023-01-07T14:30:58.352Z,128.23
2023-01-07T14:33:41.197Z,117.70
2023-01-07T14:37:24.315Z,126.32
2023-01-07T14:39:57.904Z,118.97
2023-01-07T14:43:20.317Z,121.80
2023-01-07T14:46:53.852Z,100.47
2023-01-07T14:50:18.119Z,85.25
2023-01-07T14:53:41.995Z,90.53
2023-01-07T14:56:20.266Z,97.85
2023-01-07T14:59:28.571Z,92.72
2023-01-07T15:02:28.497Z,100.18
2023-01-07T15:05:25.774Z,91.00
2023-01-07T15:08:19.684Z,85.30
2023-01-07T15:11:09.717Z,102.97
2023-01-07T15:14:04.735Z,119.25
2023-01-07T15:16:37.558Z,120.53
2023-01-07T15:19:08.968Z,102.55
2023-01-07T15:21:58.753Z,91.40
2023-01-07T15:25:03.891Z,104.85
2023-01-07T15:28:17.917Z,132.32
2023-01-07T15:31:14.913Z,156.43
2023-01-07T15:33:49.529Z,141.40
2023-01-07T15:36:21.127Z,129.98
2023-01-07T15:38:53.882Z,165.07
2023-01-07T15:41:33.651Z,159.23
2023-01-07T15:44:05.526Z,170.05
2023-01-07T15:46:40.420Z,217.13
2023-01-07T15:49:11.140Z,235.93
2023-01-07T15:51:41.754Z,269.67
2023-01-07T15:54:40.143Z,167.82
2023-01-07T15:57:34.490Z,170.40
2023-01-07T16:00:28.931Z,185.20
2023-01-07T16:03:01.753Z,154.02
2023-01-07T16:05:32.181Z,164.07
2023-01-07T16:08:56.247Z,158.43
2023-01-07T16:11:30.513Z,169.82
2023-01-07T16:14:06.790Z,146.32
2023-01-07T16:16:38.366Z,171.93
2023-01-07T16:19:20.805Z,195.20
2023-01-07T16:21:57.407Z,178.55
2023-01-07T16:24:26.112Z,153.65
2023-01-07T16:27:14.112Z,152.85
2023-01-07T16:29:54.370Z,169.70
2023-01-07T16:32:27.063Z,181.88
2023-01-07T16:35:06.532Z,175.15
2023-01-07T16:37:47.629Z,175.05
2023-01-07T16:40:27.822Z,156.73
2023-01-07T16:43:40.308Z,163.63
2023-01-07T16:46:22.564Z,147.93
2023-01-07T16:49:17.519Z,134.13
2023-01-07T16:52:04.929Z,131.35
2023-01-07T16:54:43.793Z,114.32
2023-01-07T16:57:14.506Z,118.90
2023-01-07T16:59:55.655Z,127.10
2023-01-07T17:02:56.243Z,129.55
2023-01-07T17:05:32.117Z,119.47
2023-01-07T17:08:05.402Z,127.00
2023-01-07T17:15:39.851Z,141.77
2023-01-07T19:17:18.862Z,115.70
2023-01-07T19:20:45.640Z,97.65
2023-01-07T19:56:09.226Z,169.40
2023-01-07T19:58:30.849Z,121.93
2023-01-07T20:01:14.676Z,100.93
2023-01-07T20:03:45.984Z,96.72
2023-01-07T20:06:21.023Z,93.50
2023-01-07T20:09:06.683Z,94.57
2023-01-07T20:16:23.384Z,102.80
2023-01-07T20:19:10.072Z,101.55
2023-01-07T20:26:28.986Z,105.07
2023-01-07T20:34:24.874Z,107.05
2023-01-07T20:45:53.807Z,104.32
2023-01-07T20:48:50.765Z,108.15
2023-01-07T20:51:35.989Z,110.30
2023-01-07T20:54:11.878Z,119.05
2023-01-07T20:56:48.586Z,124.35
2023-01-07T20:59:23.433Z,117.13
2023-01-07T21:02:09.322Z,112.53
2023-01-07T21:04:38.619Z,127.88
2023-01-07T21:07:22.364Z,126.00
2023-01-07T21:09:57.943Z,114.68
2023-01-07T21:13:36.603Z,112.10
2023-01-07T21:16:13.197Z,108.63
2023-01-07T21:19:05.500Z,110.07
2023-01-07T21:21:52.710Z,106.13
2023-01-07T21:24:25.623Z,97.55
2023-01-07T21:27:15.940Z,95.57
2023-01-07T21:33:50.582Z,100.22
2023-01-07T21:53:21.898Z,104.05
2023-01-07T22:01:13.708Z,104.25
2023-01-07T22:09:08.914Z,98.60
2023-01-07T22:12:07.924Z,95.43
2023-01-07T22:19:47.702Z,108.75
2023-01-07T22:23:33.785Z,87.55
2023-01-07T22:31:10.287Z,86.88
2023-01-07T22:33:39.265Z,88.47
2023-01-07T22:36:09.835Z,88.63
2023-01-07T22:38:39.763Z,89.30
2023-01-07T22:41:12.304Z,93.47
2023-01-07T22:43:54.404Z,96.60
2023-01-07T22:46:30.206Z,89.53
2023-01-07T22:49:03.694Z,103.95
2023-01-07T22:51:38.750Z,110.30
2023-01-07T22:54:18.045Z,101.95
2023-01-07T22:56:51.404Z,106.22
2023-01-07T22:59:21.573Z,103.95
2023-01-07T23:01:58.645Z,79.95
2023-01-07T23:04:30.435Z,72.90
2023-01-07T23:07:04.124Z,73.30
2023-01-07T23:09:35.769Z,83.88
2023-01-07T23:12:08.043Z,77.00
2023-01-07T23:15:02.495Z,75.90
2023-01-07T23:17:32.646Z,73.25
2023-01-07T23:23:26.101Z,74.80
2023-01-07T23:25:56.418Z,72.18
2023-01-07T23:28:52.142Z,67.28
2023-01-07T23:31:27.561Z,65.30
2023-01-07T23:34:01.172Z,65.70
2023-01-07T23:36:30.105Z,67.50
2023-01-07T23:38:59.293Z,66.80
2023-01-07T23:41:36.459Z,80.57
2023-01-07T23:44:09.893Z,79.03
2023-01-07T23:46:38.731Z,65.10
2023-01-07T23:49:10.414Z,67.43
2023-01-07T23:51:41.064Z,60.42
2023-01-07T23:54:10.208Z,60.53
2023-01-07T23:56:39.198Z,63.75
2023-01-07T23:59:08.961Z,61.13
